createdAt,value
2023-03-25T00:01:19.884Z,94494.94
2023-03-25T00:03:50.889Z,94529.81
2023-03-25T00:06:19.923Z,94524.78
2023-03-25T00:08:48.338Z,94518.91
2023-03-25T00:11:18.111Z,94519.41
2023-03-25T00:13:46.419Z,94525.34
2023-03-25T00:16:15.058Z,94530.13
2023-03-25T00:18:43.766Z,94468.84
2023-03-25T00:21:12.171Z,94504.56
2023-03-25T00:23:41.818Z,94500.00
2023-03-25T00:26:10.438Z,94493.59
2023-03-25T00:28:40.611Z,94497.94
2023-03-25T00:31:10.792Z,94505.44
2023-03-25T00:33:41.916Z,94501.03
2023-03-25T00:36:13.794Z,94490.56
2023-03-25T00:38:43.748Z,94461.63
2023-03-25T00:41:23.481Z,94486.66
2023-03-25T00:43:54.420Z,94486.16
2023-03-25T00:46:23.395Z,94443.25
2023-03-25T00:48:52.775Z,94486.41
2023-03-25T00:51:21.877Z,94503.97
2023-03-25T00:53:53.503Z,94429.41
2023-03-25T00:56:22.047Z,94502.28
2023-03-25T00:58:50.541Z,94486.31
2023-03-25T01:01:23.693Z,94504.50
2023-03-25T01:03:58.032Z,94493.22
2023-03-25T01:06:30.076Z,94502.28
2023-03-25T01:08:59.423Z,94390.22
2023-03-25T01:11:30.354Z,94472.03
2023-03-25T01:14:00.571Z,94443.06
2023-03-25T01:16:30.947Z,94483.66
2023-03-25T01:18:59.319Z,94457.88
2023-03-25T01:21:27.976Z,94481.59
2023-03-25T01:23:56.337Z,94485.84
2023-03-25T01:26:24.714Z,94456.41
2023-03-25T01:28:54.068Z,94443.84
2023-03-25T01:31:24.419Z,94427.41
2023-03-25T01:33:54.140Z,94439.84
2023-03-25T01:36:24.807Z,94446.69
2023-03-25T01:38:53.531Z,94429.84
2023-03-25T01:41:21.867Z,94437.00
2023-03-25T01:44:08.350Z,94425.94
2023-03-25T01:46:37.530Z,94435.63
2023-03-25T01:49:10.861Z,94427.88
2023-03-25T01:51:43.512Z,94433.28
2023-03-25T01:54:13.011Z,94433.28
2023-03-25T01:56:43.607Z,94430.50
2023-03-25T01:59:12.349Z,94432.53
2023-03-25T02:01:40.679Z,94447.09
2023-03-25T02:04:12.123Z,94434.94
2023-03-25T02:06:44.579Z,94462.59
2023-03-25T02:09:15.330Z,94390.34
2023-03-25T02:11:43.590Z,94419.59
2023-03-25T02:14:15.237Z,94421.38
2023-03-25T02:16:50.621Z,94392.22
2023-03-25T02:19:57.415Z,94421.72
2023-03-25T02:22:51.173Z,94403.78
2023-03-25T02:25:46.364Z,94405.72
2023-03-25T02:28:26.206Z,94418.06
2023-03-25T02:31:22.689Z,94403.00
2023-03-25T02:34:31.630Z,94417.69
2023-03-25T02:37:31.161Z,94422.13
2023-03-25T02:40:07.524Z,94408.44
2023-03-25T02:42:41.093Z,94407.53
2023-03-25T02:45:17.219Z,94422.97
2023-03-25T02:47:50.537Z,94434.16
2023-03-25T02:50:25.108Z,94404.38
2023-03-25T02:52:58.737Z,94413.53
2023-03-25T02:55:30.739Z,94381.28
2023-03-25T02:58:01.907Z,94409.31
2023-03-25T03:00:31.028Z,94409.38
2023-03-25T03:03:01.391Z,94417.69
2023-03-25T03:05:32.516Z,94420.38
2023-03-25T03:08:23.794Z,94432.84
2023-03-25T03:11:03.904Z,94426.53
2023-03-25T03:13:46.751Z,94417.50
2023-03-25T03:16:24.997Z,94433.41
2023-03-25T03:19:03.554Z,94428.13
2023-03-25T03:21:38.421Z,94436.53
2023-03-25T03:24:14.324Z,94454.41
2023-03-25T03:26:49.095Z,94449.19
2023-03-25T03:29:21.121Z,94466.31
2023-03-25T03:32:05.681Z,94463.59
2023-03-25T03:34:44.840Z,94474.34
2023-03-25T03:37:16.746Z,94445.28
2023-03-25T03:39:46.520Z,94474.94
2023-03-25T03:42:20.635Z,94475.97
2023-03-25T03:44:54.572Z,94473.56
2023-03-25T03:47:27.986Z,94478.72
2023-03-25T03:50:00.625Z,94502.22
2023-03-25T03:52:34.691Z,94483.56
2023-03-25T03:55:10.955Z,94506.50
2023-03-25T03:57:46.869Z,94490.50
2023-03-25T04:00:19.934Z,94514.03
2023-03-25T04:02:52.431Z,94492.56
2023-03-25T04:05:23.558Z,94503.03
2023-03-25T04:07:58.894Z,94466.91
2023-03-25T04:10:35.015Z,94500.63
2023-03-25T04:13:09.510Z,94517.00
2023-03-25T04:15:38.637Z,94505.88
2023-03-25T04:18:07.104Z,94508.16
2023-03-25T04:20:36.877Z,94498.34
2023-03-25T04:23:06.568Z,94499.88
2023-03-25T04:25:35.232Z,94494.34
2023-03-25T04:28:05.131Z,94505.56
2023-03-25T04:30:33.429Z,94506.06
2023-03-25T04:33:01.854Z,94499.66
2023-03-25T04:35:33.221Z,94507.41
2023-03-25T04:38:01.895Z,94499.63
2023-03-25T04:40:30.427Z,94493.72
2023-03-25T04:42:58.843Z,94496.13
2023-03-25T04:45:28.867Z,94493.72
2023-03-25T04:47:58.226Z,94496.38
2023-03-25T04:50:28.517Z,94483.00
2023-03-25T04:52:58.403Z,94491.00
2023-03-25T04:55:26.793Z,94487.22
2023-03-25T04:57:56.444Z,94480.25
2023-03-25T05:00:27.254Z,94497.13
2023-03-25T05:03:02.090Z,94499.50
2023-03-25T05:05:30.569Z,94488.47
2023-03-25T05:07:59.436Z,94505.09
2023-03-25T05:10:29.883Z,94490.44
2023-03-25T05:13:00.533Z,94501.19
2023-03-25T05:15:30.587Z,94494.81
2023-03-25T05:18:00.409Z,94487.84
2023-03-25T05:20:28.982Z,94471.28
2023-03-25T05:22:57.761Z,94491.84
2023-03-25T05:25:26.057Z,94483.06
2023-03-25T05:27:54.582Z,94482.53
2023-03-25T05:30:23.003Z,94471.84
2023-03-25T05:32:56.776Z,94492.16
2023-03-25T05:35:27.883Z,94503.44
2023-03-25T05:37:57.752Z,94509.25
2023-03-25T05:40:26.469Z,94501.38
2023-03-25T05:42:54.977Z,94492.53
2023-03-25T05:45:23.599Z,94503.22
2023-03-25T05:47:52.444Z,94461.13
2023-03-25T05:50:21.903Z,94514.72
2023-03-25T05:52:52.042Z,94500.84
2023-03-25T05:55:22.998Z,94507.66
2023-03-25T05:57:51.461Z,94515.75
2023-03-25T06:00:23.529Z,94528.06
2023-03-25T06:02:52.922Z,94532.63
2023-03-25T06:05:23.974Z,94503.50
2023-03-25T06:07:56.605Z,94516.38
2023-03-25T06:10:25.254Z,94524.91
2023-03-25T06:12:54.436Z,94510.44
2023-03-25T06:15:29.227Z,94489.44
2023-03-25T06:17:58.015Z,94515.28
2023-03-25T06:20:26.308Z,94508.88
2023-03-25T06:22:56.450Z,94527.06
2023-03-25T06:25:26.880Z,94437.66
2023-03-25T06:27:58.122Z,94524.34
2023-03-25T06:30:26.487Z,94536.41
2023-03-25T06:32:58.392Z,94550.63
2023-03-25T06:35:26.792Z,94551.66
2023-03-25T06:37:56.725Z,94537.22
2023-03-25T06:40:26.058Z,94549.00
2023-03-25T06:42:54.406Z,94522.06
2023-03-25T06:45:22.786Z,94562.31
2023-03-25T06:47:51.154Z,94530.22
2023-03-25T06:50:19.929Z,94571.19
2023-03-25T06:52:48.192Z,94571.72
2023-03-25T06:55:18.060Z,94568.28
2023-03-25T06:57:46.688Z,94551.66
2023-03-25T07:00:20.399Z,94563.69
2023-03-25T07:02:48.511Z,94573.63
2023-03-25T07:05:16.868Z,94594.22
2023-03-25T07:07:45.765Z,94573.88
2023-03-25T07:10:14.476Z,94580.47
2023-03-25T07:12:44.472Z,94585.59
2023-03-25T07:15:13.213Z,94567.69
2023-03-25T07:17:43.694Z,94577.25
2023-03-25T07:20:14.464Z,94574.09
2023-03-25T07:22:44.137Z,94581.53
2023-03-25T07:25:12.478Z,94582.56
2023-03-25T07:27:40.888Z,94582.00
2023-03-25T07:30:11.741Z,94592.63
2023-03-25T07:32:40.240Z,94588.72
2023-03-25T07:35:09.619Z,94586.28
2023-03-25T07:37:37.896Z,94576.94
2023-03-25T07:40:07.284Z,94579.28
2023-03-25T07:42:37.667Z,94561.53
2023-03-25T07:45:07.247Z,94575.34
2023-03-25T07:47:37.047Z,94595.44
2023-03-25T07:50:05.961Z,94583.91
2023-03-25T07:52:34.317Z,94574.06
2023-03-25T07:55:02.645Z,94593.28
2023-03-25T07:57:31.351Z,94571.78
2023-03-25T07:59:59.975Z,94586.53
2023-03-25T08:02:28.305Z,94585.16
2023-03-25T08:04:58.113Z,94580.88
2023-03-25T08:07:28.547Z,94586.13
2023-03-25T08:09:56.830Z,94607.31
2023-03-25T08:12:25.136Z,94605.69
2023-03-25T08:14:53.506Z,94623.59
2023-03-25T08:17:21.904Z,94636.41
2023-03-25T08:19:50.559Z,94629.63
2023-03-25T08:22:20.620Z,94622.16
2023-03-25T08:24:49.246Z,94620.63
2023-03-25T08:27:17.554Z,94606.16
2023-03-25T08:29:47.379Z,94612.06
2023-03-25T08:32:15.717Z,94624.94
2023-03-25T08:34:44.253Z,94615.50
2023-03-25T08:37:12.603Z,94613.13
2023-03-25T08:39:45.262Z,94585.31
2023-03-25T08:42:15.177Z,94606.66
2023-03-25T08:44:43.471Z,94582.00
2023-03-25T08:47:11.792Z,94616.44
2023-03-25T08:49:40.046Z,94602.28
2023-03-25T08:52:10.638Z,94614.88
2023-03-25T08:54:39.020Z,94602.28
2023-03-25T08:57:09.032Z,94603.34
2023-03-25T08:59:37.443Z,94611.59
2023-03-25T09:02:05.936Z,94609.69
2023-03-25T09:04:34.251Z,94609.16
2023-03-25T09:07:11.254Z,94618.19
2023-03-25T09:09:40.848Z,94628.47
2023-03-25T09:12:11.135Z,94621.03
2023-03-25T09:14:39.882Z,94622.63
2023-03-25T09:17:10.262Z,94610.81
2023-03-25T09:19:39.040Z,94613.97
2023-03-25T09:22:08.363Z,94611.72
2023-03-25T09:24:36.759Z,94616.59
2023-03-25T09:27:05.644Z,94621.38
2023-03-25T09:29:35.742Z,94624.84
2023-03-25T09:32:04.436Z,94618.44
2023-03-25T09:34:32.848Z,94607.09
2023-03-25T09:37:01.351Z,94617.63
2023-03-25T09:39:29.743Z,94625.72
2023-03-25T09:42:11.812Z,94613.81
2023-03-25T09:44:57.305Z,94610.06
2023-03-25T09:47:27.115Z,94616.63
2023-03-25T09:50:01.408Z,94597.44
2023-03-25T09:52:36.150Z,94624.88
2023-03-25T09:55:07.928Z,94620.69
2023-03-25T09:57:46.157Z,94622.69
2023-03-25T10:00:20.237Z,94614.88
2023-03-25T10:02:55.516Z,94582.47
2023-03-25T10:05:47.484Z,94613.00
2023-03-25T10:08:24.450Z,94630.72
2023-03-25T10:11:01.180Z,94559.25
2023-03-25T10:13:37.578Z,94622.47
2023-03-25T10:16:16.544Z,94622.63
2023-03-25T10:18:57.893Z,94610.56
2023-03-25T10:21:32.006Z,94610.56
2023-03-25T10:24:12.060Z,94595.78
2023-03-25T10:26:46.854Z,94580.13
2023-03-25T10:29:19.781Z,94613.44
2023-03-25T10:31:53.812Z,94596.28
2023-03-25T10:34:29.652Z,94599.16
2023-03-25T10:37:00.555Z,94589.50
2023-03-25T10:39:37.492Z,94583.97
2023-03-25T10:42:18.370Z,94596.28
2023-03-25T10:44:48.234Z,94584.94
2023-03-25T10:47:21.503Z,94590.84
2023-03-25T10:49:52.470Z,94587.97
2023-03-25T10:52:20.885Z,94593.78
2023-03-25T10:54:53.340Z,94557.25
2023-03-25T10:57:26.154Z,94587.16
2023-03-25T11:00:06.215Z,94568.91
2023-03-25T11:02:36.357Z,94572.16
2023-03-25T11:05:06.677Z,94573.13
2023-03-25T11:07:37.561Z,94559.88
2023-03-25T11:10:21.708Z,94549.72
2023-03-25T11:12:52.602Z,94548.75
2023-03-25T11:15:24.126Z,94537.91
2023-03-25T11:18:02.069Z,94551.38
2023-03-25T11:20:36.757Z,94541.22
2023-03-25T11:23:08.763Z,94512.53
2023-03-25T11:25:42.150Z,94524.53
2023-03-25T11:28:19.168Z,94504.28
2023-03-25T11:31:16.730Z,94512.03
2023-03-25T11:33:48.387Z,94487.63
2023-03-25T11:36:26.848Z,94502.16
2023-03-25T11:38:59.753Z,94482.69
2023-03-25T11:41:36.869Z,94466.72
2023-03-25T11:44:07.452Z,94529.31
2023-03-25T11:46:43.018Z,94453.88
2023-03-25T11:49:19.881Z,94612.25
2023-03-25T11:51:48.305Z,94643.47
2023-03-25T11:54:18.777Z,94625.25
2023-03-25T11:56:51.454Z,94636.16
2023-03-25T11:59:25.261Z,94623.72
2023-03-25T12:02:02.704Z,94641.34
2023-03-25T12:04:32.640Z,94647.13
2023-03-25T12:07:02.868Z,94634.00
2023-03-25T12:09:33.478Z,94580.69
2023-03-25T12:12:26.879Z,94611.66
2023-03-25T12:15:07.269Z,94604.22
2023-03-25T12:17:47.805Z,94582.03
2023-03-25T12:20:27.483Z,94589.78
2023-03-25T12:23:03.662Z,94584.97
2023-03-25T12:25:56.909Z,94562.28
2023-03-25T12:28:46.663Z,94558.28
2023-03-25T12:31:27.574Z,94568.69
2023-03-25T12:34:08.072Z,94556.13
2023-03-25T12:36:49.849Z,94559.34
2023-03-25T12:39:43.717Z,94563.03
2023-03-25T12:42:22.950Z,94584.44
2023-03-25T12:45:06.137Z,94573.75
2023-03-25T12:47:37.302Z,94591.31
2023-03-25T12:50:44.863Z,94575.78
2023-03-25T12:53:33.113Z,94567.09
2023-03-25T12:56:11.649Z,94558.13
2023-03-25T12:59:07.601Z,94562.13
2023-03-25T13:01:46.261Z,94554.09
2023-03-25T13:04:38.385Z,94554.09
2023-03-25T13:07:13.005Z,94558.59
2023-03-25T13:09:53.604Z,94554.22
2023-03-25T13:12:33.026Z,94538.94
2023-03-25T13:15:09.628Z,94561.47
2023-03-25T13:17:42.766Z,94562.59
2023-03-25T13:20:13.019Z,94557.97
2023-03-25T13:22:45.092Z,94550.94
2023-03-25T13:25:22.774Z,94546.88
2023-03-25T13:27:53.476Z,94545.50
2023-03-25T13:30:32.237Z,94555.34
2023-03-25T13:33:08.302Z,94551.94
2023-03-25T13:35:43.179Z,94552.97
2023-03-25T13:38:16.577Z,94519.06
2023-03-25T13:40:53.248Z,94544.88
2023-03-25T13:43:37.573Z,94538.34
2023-03-25T13:46:09.584Z,94537.56
2023-03-25T13:48:43.502Z,94543.69
2023-03-25T13:51:12.203Z,94544.75
2023-03-25T13:53:46.708Z,94534.22
2023-03-25T13:56:53.693Z,94538.94
2023-03-25T13:59:45.961Z,94545.28
2023-03-25T14:02:35.795Z,94544.97
2023-03-25T14:05:44.228Z,94542.28
2023-03-25T14:08:32.521Z,94538.22
2023-03-25T14:11:18.854Z,94536.59
2023-03-25T14:13:52.712Z,94535.22
2023-03-25T14:16:25.800Z,94537.53
2023-03-25T14:18:57.228Z,94529.63
2023-03-25T14:21:33.922Z,94536.00
2023-03-25T14:24:04.794Z,94534.81
2023-03-25T14:26:35.578Z,94544.31
2023-03-25T14:29:11.255Z,94546.84
2023-03-25T14:31:41.023Z,94538.09
2023-03-25T14:34:30.169Z,94547.34
2023-03-25T14:37:29.043Z,94534.03
2023-03-25T14:40:00.352Z,94531.56
2023-03-25T14:42:31.723Z,94529.81
2023-03-25T14:45:42.337Z,94533.81
2023-03-25T14:48:38.028Z,94517.50
2023-03-25T14:51:41.079Z,94513.91
2023-03-25T14:54:22.501Z,94503.34
2023-03-25T14:56:57.297Z,94522.78
2023-03-25T14:59:32.165Z,94528.97
2023-03-25T15:02:07.346Z,94531.34
2023-03-25T15:04:40.305Z,94532.56
2023-03-25T15:07:14.139Z,94498.56
2023-03-25T15:09:48.800Z,94538.59
2023-03-25T15:12:21.034Z,94526.75
2023-03-25T15:14:51.647Z,94530.84
2023-03-25T15:17:43.015Z,94506.31
2023-03-25T15:20:36.206Z,94512.78
2023-03-25T15:23:33.300Z,94509.00
2023-03-25T15:26:05.024Z,94501.53
2023-03-25T15:28:48.915Z,94510.25
2023-03-25T15:31:32.136Z,94513.59
2023-03-25T15:34:16.204Z,94529.25
2023-03-25T15:36:52.310Z,94508.97
2023-03-25T15:39:37.046Z,94500.72
2023-03-25T15:42:24.796Z,94532.88
2023-03-25T15:45:28.767Z,94519.19
2023-03-25T15:48:34.622Z,94524.16
2023-03-25T15:51:16.664Z,94539.91
2023-03-25T15:54:10.517Z,94550.53
2023-03-25T15:56:43.514Z,94537.28
2023-03-25T15:59:30.345Z,94558.31
2023-03-25T16:02:02.891Z,94561.31
2023-03-25T16:04:39.822Z,94540.16
2023-03-25T16:07:11.524Z,94561.22
2023-03-25T16:09:46.262Z,94570.44
2023-03-25T16:12:23.038Z,94566.66
2023-03-25T16:14:52.739Z,94552.63
2023-03-25T16:17:23.422Z,94556.09
2023-03-25T16:19:54.523Z,94556.09
2023-03-25T16:22:27.991Z,94564.22
2023-03-25T16:24:59.856Z,94578.22
2023-03-25T16:27:32.232Z,94592.31
2023-03-25T16:30:01.021Z,94570.22
2023-03-25T16:32:34.423Z,94559.00
2023-03-25T16:35:04.782Z,94557.03
2023-03-25T16:37:34.199Z,94550.69
2023-03-25T16:40:07.579Z,94551.81
2023-03-25T16:42:37.367Z,94553.94
2023-03-25T16:45:07.368Z,94550.66
2023-03-25T16:47:36.214Z,94545.34
2023-03-25T16:50:06.376Z,94539.78
2023-03-25T16:52:36.259Z,94539.72
2023-03-25T16:55:28.904Z,94537.03
2023-03-25T16:57:57.443Z,94523.44
2023-03-25T17:00:26.826Z,94503.69
2023-03-25T17:02:55.654Z,94506.31
2023-03-25T17:05:26.374Z,94530.94
2023-03-25T17:08:02.070Z,94513.31
2023-03-25T17:10:34.484Z,94513.91
2023-03-25T17:13:09.243Z,94518.34
2023-03-25T17:15:38.299Z,94480.63
2023-03-25T17:18:14.396Z,94505.31
2023-03-25T17:20:45.025Z,94492.28
2023-03-25T17:23:28.668Z,94502.22
2023-03-25T17:26:00.358Z,94503.81
2023-03-25T17:28:33.260Z,94502.44
2023-03-25T17:31:02.345Z,94474.41
2023-03-25T17:33:35.369Z,94514.53
2023-03-25T17:36:09.439Z,94554.50
2023-03-25T17:38:45.093Z,94580.13
2023-03-25T17:41:17.358Z,94592.44
2023-03-25T17:43:48.904Z,94590.66
2023-03-25T17:46:21.915Z,94615.44
2023-03-25T17:48:53.473Z,94581.56
2023-03-25T17:51:22.880Z,94534.34
2023-03-25T17:53:51.432Z,94608.00
2023-03-25T17:56:25.683Z,94628.06
2023-03-25T17:58:59.975Z,94619.31
2023-03-25T18:01:28.912Z,94620.38
2023-03-25T18:03:57.560Z,94621.94
2023-03-25T18:06:26.166Z,94561.63
2023-03-25T18:08:54.471Z,94589.31
2023-03-25T18:11:24.166Z,94518.06
2023-03-25T18:13:52.688Z,94610.75
2023-03-25T18:16:22.832Z,94612.88
2023-03-25T18:18:51.936Z,94609.69
2023-03-25T18:21:21.195Z,94603.22
2023-03-25T18:23:49.623Z,94606.75
2023-03-25T18:26:19.876Z,94608.88
2023-03-25T18:28:50.165Z,94588.34
2023-03-25T18:31:19.006Z,94595.22
2023-03-25T18:33:48.627Z,94611.84
2023-03-25T18:36:17.565Z,94606.00
2023-03-25T18:38:46.476Z,94591.56
2023-03-25T18:41:17.342Z,94607.09
2023-03-25T18:43:45.896Z,94572.41
2023-03-25T18:46:16.405Z,94606.28
2023-03-25T18:48:45.243Z,94608.19
2023-03-25T18:51:14.428Z,94612.50
2023-03-25T18:53:43.038Z,94608.75
2023-03-25T18:56:11.852Z,94606.88
2023-03-25T18:58:40.239Z,94606.06
2023-03-25T19:01:10.176Z,94603.41
2023-03-25T19:03:40.314Z,94613.59
2023-03-25T19:06:12.075Z,94594.56
2023-03-25T19:08:40.755Z,94588.94
2023-03-25T19:11:19.909Z,94584.72
2023-03-25T19:13:49.154Z,94570.59
2023-03-25T19:16:17.754Z,94581.78
2023-03-25T19:18:47.743Z,94594.09
2023-03-25T19:21:17.866Z,94569.56
2023-03-25T19:23:46.227Z,94600.72
2023-03-25T19:26:14.962Z,94575.03
2023-03-25T19:28:43.884Z,94592.13
2023-03-25T19:31:15.743Z,94612.44
2023-03-25T19:33:44.604Z,94611.34
2023-03-25T19:36:19.177Z,94613.75
2023-03-25T19:38:47.756Z,94614.84
2023-03-25T19:41:17.429Z,94592.13
2023-03-25T19:43:46.026Z,94608.63
2023-03-25T19:46:14.529Z,94605.19
2023-03-25T19:48:42.862Z,94603.84
2023-03-25T19:51:11.224Z,94606.00
2023-03-25T19:53:41.059Z,94619.34
2023-03-25T19:56:13.993Z,94611.81
2023-03-25T19:58:42.522Z,94600.38
2023-03-25T20:01:11.245Z,94633.25
2023-03-25T20:03:41.288Z,94641.25
2023-03-25T20:06:10.057Z,94637.97
2023-03-25T20:08:38.430Z,94634.78
2023-03-25T20:11:12.846Z,94626.19
2023-03-25T20:13:41.419Z,94619.59
2023-03-25T20:16:10.271Z,94634.31
2023-03-25T20:18:39.110Z,94624.66
2023-03-25T20:21:08.792Z,94636.94
2023-03-25T20:23:37.234Z,94602.84
2023-03-25T20:26:06.242Z,94631.88
2023-03-25T20:28:37.458Z,94635.88
2023-03-25T20:31:18.504Z,94625.28
2023-03-25T20:33:47.655Z,94639.94
2023-03-25T20:36:15.944Z,94641.31
2023-03-25T20:38:56.075Z,94626.34
2023-03-25T20:41:25.767Z,94641.59
2023-03-25T20:43:55.917Z,94642.34
2023-03-25T20:46:28.523Z,94617.31
2023-03-25T20:48:57.393Z,94649.97
2023-03-25T20:51:26.531Z,94617.63
2023-03-25T20:53:54.920Z,94668.69
2023-03-25T20:56:23.265Z,94671.41
2023-03-25T20:58:51.939Z,94685.03
2023-03-25T21:01:22.279Z,94688.00
2023-03-25T21:03:52.217Z,94678.91
2023-03-25T21:06:23.725Z,94647.47
2023-03-25T21:08:54.801Z,94689.47
2023-03-25T21:11:23.267Z,94701.50
2023-03-25T21:13:51.619Z,94683.81
2023-03-25T21:16:21.444Z,94686.00
2023-03-25T21:18:50.444Z,94671.00
2023-03-25T21:21:20.072Z,94671.81
2023-03-25T21:23:49.613Z,94683.84
2023-03-25T21:26:18.219Z,94690.81
2023-03-25T21:28:46.619Z,94705.53
2023-03-25T21:31:20.209Z,94684.97
2023-03-25T21:33:52.662Z,94684.16
2023-03-25T21:36:24.338Z,94683.34
2023-03-25T21:38:55.819Z,94638.44
2023-03-25T21:41:24.133Z,94673.19
2023-03-25T21:43:53.401Z,94673.97
2023-03-25T21:46:24.439Z,94671.31
2023-03-25T21:48:55.039Z,94664.09
2023-03-25T21:51:23.383Z,94676.38
2023-03-25T21:53:52.879Z,94662.22
2023-03-25T21:56:24.790Z,94671.31
2023-03-25T21:58:53.525Z,94659.03
2023-03-25T22:01:28.821Z,94655.00
2023-03-25T22:04:00.128Z,94657.69
2023-03-25T22:06:30.629Z,94675.88
2023-03-25T22:08:59.161Z,94657.69
2023-03-25T22:11:29.793Z,94661.16
2023-03-25T22:13:58.409Z,94660.88
2023-03-25T22:16:27.084Z,94681.19
2023-03-25T22:18:55.509Z,94683.59
2023-03-25T22:21:29.670Z,94689.22
2023-03-25T22:24:00.229Z,94680.09
2023-03-25T22:26:31.241Z,94666.75
2023-03-25T22:29:01.940Z,94689.75
2023-03-25T22:31:39.827Z,94685.75
2023-03-25T22:34:12.105Z,94677.75
2023-03-25T22:36:46.415Z,94686.56
2023-03-25T22:39:14.719Z,94686.81
2023-03-25T22:41:43.176Z,94678.00
2023-03-25T22:44:12.392Z,94668.63
2023-03-25T22:46:41.133Z,94700.44
2023-03-25T22:49:09.524Z,94691.63
2023-03-25T22:51:37.872Z,94682.53
2023-03-25T22:54:09.924Z,94666.22
2023-03-25T22:56:38.242Z,94679.06
2023-03-25T22:59:08.275Z,94694.56
2023-03-25T23:01:37.234Z,94681.75
2023-03-25T23:04:06.270Z,94699.38
2023-03-25T23:06:36.400Z,94703.41
2023-03-25T23:09:08.609Z,94674.25
2023-03-25T23:11:38.375Z,94682.25
2023-03-25T23:14:09.097Z,94701.47
2023-03-25T23:16:39.028Z,94682.25
2023-03-25T23:19:09.927Z,94692.41
2023-03-25T23:21:38.584Z,94682.28
2023-03-25T23:24:09.274Z,94693.78
2023-03-25T23:26:40.269Z,94682.53
2023-03-25T23:29:10.232Z,94684.94
2023-03-25T23:31:41.322Z,94694.56
2023-03-25T23:34:11.421Z,94678.00
2023-03-25T23:36:40.390Z,94676.13
2023-03-25T23:39:11.945Z,94668.91
2023-03-25T23:41:40.262Z,94687.09
2023-03-25T23:44:08.893Z,94680.41
2023-03-25T23:46:37.303Z,94692.97
2023-03-25T23:49:05.823Z,94696.47
2023-03-25T23:51:36.750Z,94692.97
2023-03-25T23:54:06.139Z,94689.75
2023-03-25T23:56:36.647Z,94687.34
2023-03-25T23:59:06.576Z,94668.09
